sensor_id;sensor_type;location;lat;lon;timestamp;P1;durP1;ratioP1;P2;durP2;ratioP2
68432;SDS011;55412;51.350;17.056;2023-04-06T00:02:15;39.33;;;14.90;;
68432;SDS011;55412;51.350;17.056;2023-04-06T00:04:41;28.40;;;12.85;;
68432;SDS011;55412;51.350;17.056;2023-04-06T00:07:07;34.17;;;13.40;;
68432;SDS011;55412;51.350;17.056;2023-04-06T00:09:34;34.28;;;14.30;;
68432;SDS011;55412;51.350;17.056;2023-04-06T00:12:00;27.42;;;10.02;;
68432;SDS011;55412;51.350;17.056;2023-04-06T00:14:26;30.10;;;11.35;;
68432;SDS011;55412;51.350;17.056;2023-04-06T00:16:52;23.60;;;7.93;;
68432;SDS011;55412;51.350;17.056;2023-04-06T00:19:18;15.90;;;6.03;;
68432;SDS011;55412;51.350;17.056;2023-04-06T00:21:44;23.90;;;9.20;;
68432;SDS011;55412;51.350;17.056;2023-04-06T00:24:12;28.20;;;10.95;;
68432;SDS011;55412;51.350;17.056;2023-04-06T00:26:38;26.05;;;10.27;;
68432;SDS011;55412;51.350;17.056;2023-04-06T00:29:04;19.02;;;8.98;;
68432;SDS011;55412;51.350;17.056;2023-04-06T00:31:30;23.07;;;9.47;;
68432;SDS011;55412;51.350;17.056;2023-04-06T00:33:57;22.80;;;8.82;;
68432;SDS011;55412;51.350;17.056;2023-04-06T00:36:23;27.33;;;9.88;;
68432;SDS011;55412;51.350;17.056;2023-04-06T00:38:50;24.88;;;12.63;;
68432;SDS011;55412;51.350;17.056;2023-04-06T00:41:17;29.42;;;13.43;;
68432;SDS011;55412;51.350;17.056;2023-04-06T00:43:43;31.30;;;12.23;;
68432;SDS011;55412;51.350;17.056;2023-04-06T00:46:09;36.17;;;16.58;;
68432;SDS011;55412;51.350;17.056;2023-04-06T00:48:35;16.20;;;9.32;;
68432;SDS011;55412;51.350;17.056;2023-04-06T00:51:01;31.10;;;13.27;;
68432;SDS011;55412;51.350;17.056;2023-04-06T00:53:28;35.67;;;16.75;;
68432;SDS011;55412;51.350;17.056;2023-04-06T00:55:54;37.53;;;17.17;;
68432;SDS011;55412;51.350;17.056;2023-04-06T00:58:20;39.83;;;14.98;;
68432;SDS011;55412;51.350;17.056;2023-04-06T01:00:46;27.85;;;12.75;;
68432;SDS011;55412;51.350;17.056;2023-04-06T01:03:13;31.98;;;13.05;;
68432;SDS011;55412;51.350;17.056;2023-04-06T01:05:39;33.53;;;14.38;;
68432;SDS011;55412;51.350;17.056;2023-04-06T01:08:05;26.70;;;12.90;;
68432;SDS011;55412;51.350;17.056;2023-04-06T01:10:32;26.23;;;13.18;;
68432;SDS011;55412;51.350;17.056;2023-04-06T01:12:58;28.15;;;13.00;;
68432;SDS011;55412;51.350;17.056;2023-04-06T01:15:24;35.20;;;14.75;;
68432;SDS011;55412;51.350;17.056;2023-04-06T01:17:52;32.22;;;14.57;;
68432;SDS011;55412;51.350;17.056;2023-04-06T01:20:18;39.67;;;17.50;;
68432;SDS011;55412;51.350;17.056;2023-04-06T01:22:44;36.45;;;16.20;;
68432;SDS011;55412;51.350;17.056;2023-04-06T01:25:10;29.65;;;13.48;;
68432;SDS011;55412;51.350;17.056;2023-04-06T01:27:37;10.82;;;5.15;;
68432;SDS011;55412;51.350;17.056;2023-04-06T01:30:03;26.33;;;11.23;;
68432;SDS011;55412;51.350;17.056;2023-04-06T01:32:30;20.77;;;7.30;;
68432;SDS011;55412;51.350;17.056;2023-04-06T01:34:56;28.45;;;10.52;;
68432;SDS011;55412;51.350;17.056;2023-04-06T01:37:22;21.50;;;7.70;;
68432;SDS011;55412;51.350;17.056;2023-04-06T01:39:48;21.50;;;10.75;;
68432;SDS011;55412;51.350;17.056;2023-04-06T01:42:15;29.00;;;11.93;;
68432;SDS011;55412;51.350;17.056;2023-04-06T01:44:41;25.37;;;9.10;;
68432;SDS011;55412;51.350;17.056;2023-04-06T01:47:07;20.45;;;8.20;;
68432;SDS011;55412;51.350;17.056;2023-04-06T01:49:33;21.25;;;10.35;;
68432;SDS011;55412;51.350;17.056;2023-04-06T01:51:59;22.30;;;9.45;;
68432;SDS011;55412;51.350;17.056;2023-04-06T01:54:25;12.77;;;5.50;;
68432;SDS011;55412;51.350;17.056;2023-04-06T01:56:52;18.97;;;6.43;;
68432;SDS011;55412;51.350;17.056;2023-04-06T01:59:18;22.08;;;9.25;;
68432;SDS011;55412;51.350;17.056;2023-04-06T02:01:44;22.10;;;7.22;;
68432;SDS011;55412;51.350;17.056;2023-04-06T02:04:10;22.20;;;9.25;;
68432;SDS011;55412;51.350;17.056;2023-04-06T02:06:36;15.65;;;7.50;;
68432;SDS011;55412;51.350;17.056;2023-04-06T02:09:02;16.37;;;7.73;;
68432;SDS011;55412;51.350;17.056;2023-04-06T02:11:28;23.27;;;8.95;;
68432;SDS011;55412;51.350;17.056;2023-04-06T02:13:55;18.58;;;7.88;;
68432;SDS011;55412;51.350;17.056;2023-04-06T02:16:21;19.33;;;9.32;;
68432;SDS011;55412;51.350;17.056;2023-04-06T02:18:49;18.98;;;9.88;;
68432;SDS011;55412;51.350;17.056;2023-04-06T02:21:15;24.87;;;10.00;;
68432;SDS011;55412;51.350;17.056;2023-04-06T02:23:45;21.73;;;9.32;;
68432;SDS011;55412;51.350;17.056;2023-04-06T02:26:12;24.10;;;9.60;;
68432;SDS011;55412;51.350;17.056;2023-04-06T02:28:39;26.63;;;9.85;;
68432;SDS011;55412;51.350;17.056;2023-04-06T02:31:05;32.60;;;12.80;;
68432;SDS011;55412;51.350;17.056;2023-04-06T02:33:31;30.50;;;11.90;;
68432;SDS011;55412;51.350;17.056;2023-04-06T02:35:57;32.58;;;13.65;;
68432;SDS011;55412;51.350;17.056;2023-04-06T02:38:23;29.50;;;12.30;;
68432;SDS011;55412;51.350;17.056;2023-04-06T02:40:50;31.58;;;13.32;;
68432;SDS011;55412;51.350;17.056;2023-04-06T02:43:16;33.28;;;13.13;;
68432;SDS011;55412;51.350;17.056;2023-04-06T02:45:42;28.90;;;14.97;;
68432;SDS011;55412;51.350;17.056;2023-04-06T02:48:08;36.38;;;15.23;;
68432;SDS011;55412;51.350;17.056;2023-04-06T02:50:34;36.25;;;14.95;;
68432;SDS011;55412;51.350;17.056;2023-04-06T02:53:00;28.60;;;13.23;;
68432;SDS011;55412;51.350;17.056;2023-04-06T02:55:26;27.95;;;12.82;;
68432;SDS011;55412;51.350;17.056;2023-04-06T02:57:52;30.40;;;15.03;;
68432;SDS011;55412;51.350;17.056;2023-04-06T03:00:18;29.08;;;13.10;;
68432;SDS011;55412;51.350;17.056;2023-04-06T03:02:44;25.77;;;12.52;;
68432;SDS011;55412;51.350;17.056;2023-04-06T03:05:10;24.50;;;12.70;;
68432;SDS011;55412;51.350;17.056;2023-04-06T03:07:36;22.83;;;12.48;;
68432;SDS011;55412;51.350;17.056;2023-04-06T03:10:03;23.20;;;11.27;;
68432;SDS011;55412;51.350;17.056;2023-04-06T03:12:29;24.08;;;11.63;;
68432;SDS011;55412;51.350;17.056;2023-04-06T03:14:55;28.35;;;11.77;;
68432;SDS011;55412;51.350;17.056;2023-04-06T03:17:21;25.63;;;10.80;;
68432;SDS011;55412;51.350;17.056;2023-04-06T03:19:47;24.83;;;12.13;;
68432;SDS011;55412;51.350;17.056;2023-04-06T03:22:13;25.50;;;11.73;;
68432;SDS011;55412;51.350;17.056;2023-04-06T03:24:39;27.77;;;11.13;;
68432;SDS011;55412;51.350;17.056;2023-04-06T03:27:05;27.08;;;10.27;;
68432;SDS011;55412;51.350;17.056;2023-04-06T03:29:31;28.45;;;11.90;;
68432;SDS011;55412;51.350;17.056;2023-04-06T03:31:57;23.45;;;10.77;;
68432;SDS011;55412;51.350;17.056;2023-04-06T03:34:23;25.97;;;10.90;;
68432;SDS011;55412;51.350;17.056;2023-04-06T03:36:49;24.90;;;10.82;;
68432;SDS011;55412;51.350;17.056;2023-04-06T03:39:16;24.90;;;10.48;;
68432;SDS011;55412;51.350;17.056;2023-04-06T03:41:42;22.35;;;10.80;;
68432;SDS011;55412;51.350;17.056;2023-04-06T03:44:09;22.73;;;9.18;;
68432;SDS011;55412;51.350;17.056;2023-04-06T03:46:35;18.30;;;8.83;;
68432;SDS011;55412;51.350;17.056;2023-04-06T03:49:01;23.63;;;10.40;;
68432;SDS011;55412;51.350;17.056;2023-04-06T03:51:27;21.00;;;9.20;;
68432;SDS011;55412;51.350;17.056;2023-04-06T03:53:53;18.80;;;9.23;;
68432;SDS011;55412;51.350;17.056;2023-04-06T03:56:19;20.55;;;8.93;;
68432;SDS011;55412;51.350;17.056;2023-04-06T03:58:45;24.37;;;9.27;;
68432;SDS011;55412;51.350;17.056;2023-04-06T04:01:15;25.73;;;11.38;;
68432;SDS011;55412;51.350;17.056;2023-04-06T04:03:43;24.92;;;10.77;;
68432;SDS011;55412;51.350;17.056;2023-04-06T04:06:09;29.02;;;13.57;;
68432;SDS011;55412;51.350;17.056;2023-04-06T04:08:35;28.98;;;13.13;;
68432;SDS011;55412;51.350;17.056;2023-04-06T04:11:01;27.07;;;13.00;;
68432;SDS011;55412;51.350;17.056;2023-04-06T04:13:27;24.88;;;12.85;;
68432;SDS011;55412;51.350;17.056;2023-04-06T04:15:53;27.23;;;11.35;;
68432;SDS011;55412;51.350;17.056;2023-04-06T04:18:19;25.10;;;11.07;;
68432;SDS011;55412;51.350;17.056;2023-04-06T04:20:46;25.23;;;11.48;;
68432;SDS011;55412;51.350;17.056;2023-04-06T04:23:12;24.93;;;10.70;;
68432;SDS011;55412;51.350;17.056;2023-04-06T04:25:38;30.10;;;12.68;;
68432;SDS011;55412;51.350;17.056;2023-04-06T04:28:06;32.17;;;14.30;;
68432;SDS011;55412;51.350;17.056;2023-04-06T04:30:32;26.40;;;10.60;;
68432;SDS011;55412;51.350;17.056;2023-04-06T04:32:58;24.42;;;11.27;;
68432;SDS011;55412;51.350;17.056;2023-04-06T04:35:24;28.50;;;11.50;;
68432;SDS011;55412;51.350;17.056;2023-04-06T04:37:50;31.30;;;13.90;;
68432;SDS011;55412;51.350;17.056;2023-04-06T04:40:16;30.52;;;12.13;;
68432;SDS011;55412;51.350;17.056;2023-04-06T04:42:42;27.38;;;13.23;;
68432;SDS011;55412;51.350;17.056;2023-04-06T04:45:08;27.52;;;12.70;;
68432;SDS011;55412;51.350;17.056;2023-04-06T04:47:35;30.77;;;13.03;;
68432;SDS011;55412;51.350;17.056;2023-04-06T04:50:01;26.63;;;12.23;;
68432;SDS011;55412;51.350;17.056;2023-04-06T04:52:27;30.80;;;12.98;;
68432;SDS011;55412;51.350;17.056;2023-04-06T04:54:53;33.15;;;13.13;;
68432;SDS011;55412;51.350;17.056;2023-04-06T04:57:19;41.33;;;15.27;;
68432;SDS011;55412;51.350;17.056;2023-04-06T04:59:45;34.17;;;15.30;;
68432;SDS011;55412;51.350;17.056;2023-04-06T05:02:11;31.98;;;13.85;;
68432;SDS011;55412;51.350;17.056;2023-04-06T05:04:37;31.83;;;13.30;;
68432;SDS011;55412;51.350;17.056;2023-04-06T05:07:07;31.05;;;13.75;;
68432;SDS011;55412;51.350;17.056;2023-04-06T05:09:34;34.03;;;14.93;;
68432;SDS011;55412;51.350;17.056;2023-04-06T05:12:00;31.27;;;13.87;;
68432;SDS011;55412;51.350;17.056;2023-04-06T05:14:27;36.13;;;14.02;;
68432;SDS011;55412;51.350;17.056;2023-04-06T05:16:53;32.33;;;15.68;;
68432;SDS011;55412;51.350;17.056;2023-04-06T05:19:20;30.38;;;14.00;;
68432;SDS011;55412;51.350;17.056;2023-04-06T05:21:46;27.25;;;10.70;;
68432;SDS011;55412;51.350;17.056;2023-04-06T05:24:12;27.33;;;12.67;;
68432;SDS011;55412;51.350;17.056;2023-04-06T05:26:38;30.33;;;12.65;;
68432;SDS011;55412;51.350;17.056;2023-04-06T05:29:04;29.90;;;12.68;;
68432;SDS011;55412;51.350;17.056;2023-04-06T05:31:30;29.20;;;13.68;;
68432;SDS011;55412;51.350;17.056;2023-04-06T05:33:56;32.33;;;15.80;;
68432;SDS011;55412;51.350;17.056;2023-04-06T05:36:23;37.37;;;15.60;;
68432;SDS011;55412;51.350;17.056;2023-04-06T05:38:49;37.00;;;14.95;;
68432;SDS011;55412;51.350;17.056;2023-04-06T05:41:17;32.38;;;13.40;;
68432;SDS011;55412;51.350;17.056;2023-04-06T05:43:45;33.83;;;15.00;;
68432;SDS011;55412;51.350;17.056;2023-04-06T05:46:11;34.65;;;15.63;;
68432;SDS011;55412;51.350;17.056;2023-04-06T05:48:37;30.07;;;13.97;;
68432;SDS011;55412;51.350;17.056;2023-04-06T05:51:03;28.10;;;12.98;;
68432;SDS011;55412;51.350;17.056;2023-04-06T05:53:31;34.03;;;14.25;;
68432;SDS011;55412;51.350;17.056;2023-04-06T05:56:01;30.63;;;14.73;;
68432;SDS011;55412;51.350;17.056;2023-04-06T05:58:28;36.92;;;14.68;;
68432;SDS011;55412;51.350;17.056;2023-04-06T06:00:57;32.30;;;14.07;;
68432;SDS011;55412;51.350;17.056;2023-04-06T06:03:27;32.00;;;14.55;;
68432;SDS011;55412;51.350;17.056;2023-04-06T06:05:59;28.48;;;13.40;;
68432;SDS011;55412;51.350;17.056;2023-04-06T06:08:27;33.42;;;15.10;;
68432;SDS011;55412;51.350;17.056;2023-04-06T06:10:53;30.45;;;14.57;;
68432;SDS011;55412;51.350;17.056;2023-04-06T06:13:20;33.00;;;14.37;;
68432;SDS011;55412;51.350;17.056;2023-04-06T06:15:47;28.67;;;14.02;;
68432;SDS011;55412;51.350;17.056;2023-04-06T06:18:14;45.83;;;25.90;;
68432;SDS011;55412;51.350;17.056;2023-04-06T06:20:40;40.08;;;16.63;;
68432;SDS011;55412;51.350;17.056;2023-04-06T06:23:06;29.30;;;14.68;;
68432;SDS011;55412;51.350;17.056;2023-04-06T06:25:32;32.30;;;17.93;;
68432;SDS011;55412;51.350;17.056;2023-04-06T06:27:58;23.73;;;11.00;;
68432;SDS011;55412;51.350;17.056;2023-04-06T06:30:24;26.60;;;15.23;;
68432;SDS011;55412;51.350;17.056;2023-04-06T06:32:51;32.17;;;14.90;;
68432;SDS011;55412;51.350;17.056;2023-04-06T06:35:17;38.67;;;17.60;;
68432;SDS011;55412;51.350;17.056;2023-04-06T06:37:43;27.83;;;13.53;;
68432;SDS011;55412;51.350;17.056;2023-04-06T06:40:10;27.48;;;14.13;;
68432;SDS011;55412;51.350;17.056;2023-04-06T06:42:38;30.00;;;14.35;;
68432;SDS011;55412;51.350;17.056;2023-04-06T06:45:05;30.88;;;12.68;;
68432;SDS011;55412;51.350;17.056;2023-04-06T06:47:32;20.73;;;11.00;;
68432;SDS011;55412;51.350;17.056;2023-04-06T06:49:58;25.87;;;13.93;;
68432;SDS011;55412;51.350;17.056;2023-04-06T06:52:24;27.23;;;13.57;;
68432;SDS011;55412;51.350;17.056;2023-04-06T06:54:51;23.40;;;11.55;;
68432;SDS011;55412;51.350;17.056;2023-04-06T06:57:17;22.98;;;11.80;;
68432;SDS011;55412;51.350;17.056;2023-04-06T06:59:43;22.70;;;12.50;;
68432;SDS011;55412;51.350;17.056;2023-04-06T07:02:09;18.60;;;9.20;;
68432;SDS011;55412;51.350;17.056;2023-04-06T07:04:35;21.75;;;12.57;;
68432;SDS011;55412;51.350;17.056;2023-04-06T07:07:01;21.83;;;11.13;;
68432;SDS011;55412;51.350;17.056;2023-04-06T07:09:27;23.15;;;11.35;;
68432;SDS011;55412;51.350;17.056;2023-04-06T07:11:53;22.40;;;11.48;;
68432;SDS011;55412;51.350;17.056;2023-04-06T07:14:19;19.20;;;10.90;;
68432;SDS011;55412;51.350;17.056;2023-04-06T07:16:45;18.52;;;10.50;;
68432;SDS011;55412;51.350;17.056;2023-04-06T07:19:11;17.65;;;10.38;;
68432;SDS011;55412;51.350;17.056;2023-04-06T07:21:38;20.15;;;10.48;;
68432;SDS011;55412;51.350;17.056;2023-04-06T07:24:04;17.60;;;9.85;;
68432;SDS011;55412;51.350;17.056;2023-04-06T07:26:30;19.63;;;10.33;;
68432;SDS011;55412;51.350;17.056;2023-04-06T07:28:56;18.27;;;8.93;;
68432;SDS011;55412;51.350;17.056;2023-04-06T07:31:22;15.95;;;8.23;;
68432;SDS011;55412;51.350;17.056;2023-04-06T07:33:48;18.85;;;9.52;;
68432;SDS011;55412;51.350;17.056;2023-04-06T07:36:15;18.95;;;10.23;;
68432;SDS011;55412;51.350;17.056;2023-04-06T07:38:41;18.13;;;9.23;;
68432;SDS011;55412;51.350;17.056;2023-04-06T07:41:07;20.48;;;9.75;;
68432;SDS011;55412;51.350;17.056;2023-04-06T07:43:33;17.95;;;9.70;;
68432;SDS011;55412;51.350;17.056;2023-04-06T07:45:59;16.77;;;9.68;;
68432;SDS011;55412;51.350;17.056;2023-04-06T07:48:26;16.33;;;8.35;;
68432;SDS011;55412;51.350;17.056;2023-04-06T07:50:52;19.60;;;9.47;;
68432;SDS011;55412;51.350;17.056;2023-04-06T07:53:26;18.38;;;10.10;;
68432;SDS011;55412;51.350;17.056;2023-04-06T07:55:52;18.88;;;9.32;;
68432;SDS011;55412;51.350;17.056;2023-04-06T07:58:20;17.92;;;9.52;;
68432;SDS011;55412;51.350;17.056;2023-04-06T08:00:47;16.38;;;9.48;;
68432;SDS011;55412;51.350;17.056;2023-04-06T08:03:13;17.60;;;8.97;;
68432;SDS011;55412;51.350;17.056;2023-04-06T08:05:39;18.73;;;8.88;;
68432;SDS011;55412;51.350;17.056;2023-04-06T08:08:05;17.95;;;6.68;;
68432;SDS011;55412;51.350;17.056;2023-04-06T08:10:31;15.75;;;8.35;;
68432;SDS011;55412;51.350;17.056;2023-04-06T08:12:59;11.88;;;6.00;;
68432;SDS011;55412;51.350;17.056;2023-04-06T08:15:25;13.97;;;6.83;;
68432;SDS011;55412;51.350;17.056;2023-04-06T08:17:51;12.93;;;5.70;;
68432;SDS011;55412;51.350;17.056;2023-04-06T08:20:17;13.18;;;6.20;;
68432;SDS011;55412;51.350;17.056;2023-04-06T08:22:43;13.73;;;6.00;;
68432;SDS011;55412;51.350;17.056;2023-04-06T08:25:09;12.75;;;6.20;;
68432;SDS011;55412;51.350;17.056;2023-04-06T08:27:36;12.40;;;6.10;;
68432;SDS011;55412;51.350;17.056;2023-04-06T08:30:02;12.48;;;5.88;;
68432;SDS011;55412;51.350;17.056;2023-04-06T08:32:28;13.88;;;6.22;;
68432;SDS011;55412;51.350;17.056;2023-04-06T08:34:54;12.70;;;6.22;;
68432;SDS011;55412;51.350;17.056;2023-04-06T08:37:21;15.20;;;7.10;;
68432;SDS011;55412;51.350;17.056;2023-04-06T08:39:47;14.40;;;5.33;;
68432;SDS011;55412;51.350;17.056;2023-04-06T08:42:16;13.57;;;6.70;;
68432;SDS011;55412;51.350;17.056;2023-04-06T08:44:46;17.02;;;6.45;;
68432;SDS011;55412;51.350;17.056;2023-04-06T08:47:18;13.27;;;6.22;;
68432;SDS011;55412;51.350;17.056;2023-04-06T08:49:45;13.40;;;6.50;;
68432;SDS011;55412;51.350;17.056;2023-04-06T08:52:12;14.30;;;6.50;;
68432;SDS011;55412;51.350;17.056;2023-04-06T08:54:38;13.18;;;5.80;;
68432;SDS011;55412;51.350;17.056;2023-04-06T08:57:04;12.07;;;5.32;;
68432;SDS011;55412;51.350;17.056;2023-04-06T08:59:31;12.00;;;4.60;;
68432;SDS011;55412;51.350;17.056;2023-04-06T09:01:57;12.70;;;5.20;;
68432;SDS011;55412;51.350;17.056;2023-04-06T09:04:28;11.53;;;5.20;;
68432;SDS011;55412;51.350;17.056;2023-04-06T09:06:54;9.15;;;3.80;;
68432;SDS011;55412;51.350;17.056;2023-04-06T09:09:20;8.40;;;3.17;;
68432;SDS011;55412;51.350;17.056;2023-04-06T09:11:48;9.57;;;4.45;;
68432;SDS011;55412;51.350;17.056;2023-04-06T09:14:16;7.13;;;3.67;;
68432;SDS011;55412;51.350;17.056;2023-04-06T09:16:57;12.40;;;6.03;;
68432;SDS011;55412;51.350;17.056;2023-04-06T09:19:23;6.80;;;1.83;;
68432;SDS011;55412;51.350;17.056;2023-04-06T09:21:49;10.10;;;6.05;;
68432;SDS011;55412;51.350;17.056;2023-04-06T09:24:26;9.52;;;3.45;;
68432;SDS011;55412;51.350;17.056;2023-04-06T09:26:52;3.95;;;1.17;;
68432;SDS011;55412;51.350;17.056;2023-04-06T09:29:25;6.30;;;2.73;;
68432;SDS011;55412;51.350;17.056;2023-04-06T09:31:52;7.97;;;3.80;;
68432;SDS011;55412;51.350;17.056;2023-04-06T09:34:27;6.13;;;2.70;;
68432;SDS011;55412;51.350;17.056;2023-04-06T09:36:53;7.35;;;3.25;;
68432;SDS011;55412;51.350;17.056;2023-04-06T09:39:21;7.45;;;3.25;;
68432;SDS011;55412;51.350;17.056;2023-04-06T09:41:51;5.77;;;2.33;;
68432;SDS011;55412;51.350;17.056;2023-04-06T09:44:19;5.63;;;2.58;;
68432;SDS011;55412;51.350;17.056;2023-04-06T09:46:46;6.93;;;2.20;;
68432;SDS011;55412;51.350;17.056;2023-04-06T09:49:12;8.60;;;3.40;;
68432;SDS011;55412;51.350;17.056;2023-04-06T09:51:41;14.30;;;5.10;;
68432;SDS011;55412;51.350;17.056;2023-04-06T09:54:15;11.23;;;3.93;;
68432;SDS011;55412;51.350;17.056;2023-04-06T09:56:51;14.68;;;5.60;;
68432;SDS011;55412;51.350;17.056;2023-04-06T10:08:17;14.77;;;5.77;;
68432;SDS011;55412;51.350;17.056;2023-04-06T10:10:46;17.13;;;6.18;;
68432;SDS011;55412;51.350;17.056;2023-04-06T10:13:12;15.10;;;5.57;;
68432;SDS011;55412;51.350;17.056;2023-04-06T10:15:38;12.13;;;5.18;;
68432;SDS011;55412;51.350;17.056;2023-04-06T10:18:05;11.90;;;4.72;;
68432;SDS011;55412;51.350;17.056;2023-04-06T10:23:19;17.50;;;5.80;;
68432;SDS011;55412;51.350;17.056;2023-04-06T10:25:56;11.65;;;4.10;;
68432;SDS011;55412;51.350;17.056;2023-04-06T10:28:24;11.43;;;4.05;;
68432;SDS011;55412;51.350;17.056;2023-04-06T10:30:57;12.13;;;5.07;;
68432;SDS011;55412;51.350;17.056;2023-04-06T10:33:25;13.27;;;5.57;;
68432;SDS011;55412;51.350;17.056;2023-04-06T10:35:53;11.55;;;4.75;;
68432;SDS011;55412;51.350;17.056;2023-04-06T10:38:20;10.55;;;5.32;;
68432;SDS011;55412;51.350;17.056;2023-04-06T10:41:03;8.60;;;3.40;;
68432;SDS011;55412;51.350;17.056;2023-04-06T10:43:34;14.27;;;6.45;;
68432;SDS011;55412;51.350;17.056;2023-04-06T10:46:02;17.53;;;7.60;;
68432;SDS011;55412;51.350;17.056;2023-04-06T10:49:08;14.63;;;6.95;;
68432;SDS011;55412;51.350;17.056;2023-04-06T10:51:26;10.57;;;4.43;;
68432;SDS011;55412;51.350;17.056;2023-04-06T10:53:54;10.27;;;5.18;;
68432;SDS011;55412;51.350;17.056;2023-04-06T10:56:21;10.75;;;5.95;;
68432;SDS011;55412;51.350;17.056;2023-04-06T10:58:54;11.03;;;5.00;;
68432;SDS011;55412;51.350;17.056;2023-04-06T11:01:24;10.30;;;6.07;;
68432;SDS011;55412;51.350;17.056;2023-04-06T11:03:53;11.98;;;5.25;;
68432;SDS011;55412;51.350;17.056;2023-04-06T11:06:24;9.38;;;4.10;;
68432;SDS011;55412;51.350;17.056;2023-04-06T11:08:54;6.82;;;3.50;;
68432;SDS011;55412;51.350;17.056;2023-04-06T11:11:21;11.37;;;5.70;;
68432;SDS011;55412;51.350;17.056;2023-04-06T11:16:23;5.03;;;1.58;;
68432;SDS011;55412;51.350;17.056;2023-04-06T11:26:50;8.80;;;3.65;;
68432;SDS011;55412;51.350;17.056;2023-04-06T11:29:28;8.35;;;3.72;;
68432;SDS011;55412;51.350;17.056;2023-04-06T11:31:59;12.98;;;4.47;;
68432;SDS011;55412;51.350;17.056;2023-04-06T11:34:28;9.00;;;3.83;;
68432;SDS011;55412;51.350;17.056;2023-04-06T11:39:31;9.57;;;4.53;;
68432;SDS011;55412;51.350;17.056;2023-04-06T11:42:20;12.60;;;6.50;;
68432;SDS011;55412;51.350;17.056;2023-04-06T11:44:51;5.90;;;2.72;;
68432;SDS011;55412;51.350;17.056;2023-04-06T11:47:27;6.40;;;2.53;;
68432;SDS011;55412;51.350;17.056;2023-04-06T11:50:08;9.67;;;4.40;;
68432;SDS011;55412;51.350;17.056;2023-04-06T11:52:37;9.43;;;3.90;;
68432;SDS011;55412;51.350;17.056;2023-04-06T11:57:39;7.45;;;3.00;;
68432;SDS011;55412;51.350;17.056;2023-04-06T12:00:07;6.43;;;3.17;;
68432;SDS011;55412;51.350;17.056;2023-04-06T12:02:38;8.27;;;3.37;;
68432;SDS011;55412;51.350;17.056;2023-04-06T12:05:05;9.80;;;4.05;;
68432;SDS011;55412;51.350;17.056;2023-04-06T12:07:33;12.30;;;3.50;;
68432;SDS011;55412;51.350;17.056;2023-04-06T12:10:00;10.82;;;4.18;;
68432;SDS011;55412;51.350;17.056;2023-04-06T12:12:28;7.10;;;3.45;;
68432;SDS011;55412;51.350;17.056;2023-04-06T12:14:55;6.73;;;2.90;;
68432;SDS011;55412;51.350;17.056;2023-04-06T12:17:21;6.88;;;2.88;;
68432;SDS011;55412;51.350;17.056;2023-04-06T12:19:48;7.72;;;3.10;;
68432;SDS011;55412;51.350;17.056;2023-04-06T12:22:16;5.57;;;2.25;;
68432;SDS011;55412;51.350;17.056;2023-04-06T12:24:43;6.28;;;2.95;;
68432;SDS011;55412;51.350;17.056;2023-04-06T12:27:09;5.87;;;2.17;;
68432;SDS011;55412;51.350;17.056;2023-04-06T12:29:37;8.18;;;3.60;;
68432;SDS011;55412;51.350;17.056;2023-04-06T12:32:04;7.38;;;3.33;;
68432;SDS011;55412;51.350;17.056;2023-04-06T12:34:31;9.82;;;3.80;;
68432;SDS011;55412;51.350;17.056;2023-04-06T12:36:57;7.82;;;3.47;;
68432;SDS011;55412;51.350;17.056;2023-04-06T12:39:23;10.47;;;3.57;;
68432;SDS011;55412;51.350;17.056;2023-04-06T12:41:50;9.48;;;3.20;;
68432;SDS011;55412;51.350;17.056;2023-04-06T12:44:17;11.20;;;4.15;;
68432;SDS011;55412;51.350;17.056;2023-04-06T12:46:43;10.80;;;4.50;;
68432;SDS011;55412;51.350;17.056;2023-04-06T12:49:10;13.27;;;5.63;;
68432;SDS011;55412;51.350;17.056;2023-04-06T12:51:36;72.20;;;19.03;;
68432;SDS011;55412;51.350;17.056;2023-04-06T12:54:02;11.38;;;5.32;;
68432;SDS011;55412;51.350;17.056;2023-04-06T12:56:28;59.25;;;17.15;;
68432;SDS011;55412;51.350;17.056;2023-04-06T12:58:56;32.00;;;10.45;;
68432;SDS011;55412;51.350;17.056;2023-04-06T13:01:22;104.15;;;29.02;;
68432;SDS011;55412;51.350;17.056;2023-04-06T13:03:48;75.47;;;21.53;;
68432;SDS011;55412;51.350;17.056;2023-04-06T13:06:14;12.93;;;5.05;;
68432;SDS011;55412;51.350;17.056;2023-04-06T13:08:40;26.75;;;9.45;;
68432;SDS011;55412;51.350;17.056;2023-04-06T13:11:07;34.10;;;12.15;;
68432;SDS011;55412;51.350;17.056;2023-04-06T13:13:34;21.58;;;8.60;;
68432;SDS011;55412;51.350;17.056;2023-04-06T13:16:01;18.90;;;7.37;;
68432;SDS011;55412;51.350;17.056;2023-04-06T13:18:30;12.75;;;4.93;;
68432;SDS011;55412;51.350;17.056;2023-04-06T13:20:57;11.52;;;4.22;;
68432;SDS011;55412;51.350;17.056;2023-04-06T13:23:24;14.55;;;5.28;;
68432;SDS011;55412;51.350;17.056;2023-04-06T13:25:58;10.55;;;5.10;;
68432;SDS011;55412;51.350;17.056;2023-04-06T13:28:25;10.87;;;5.00;;
68432;SDS011;55412;51.350;17.056;2023-04-06T13:30:51;16.55;;;6.97;;
68432;SDS011;55412;51.350;17.056;2023-04-06T13:33:18;17.45;;;6.93;;
68432;SDS011;55412;51.350;17.056;2023-04-06T13:35:44;17.30;;;7.18;;
68432;SDS011;55412;51.350;17.056;2023-04-06T13:38:11;18.90;;;8.15;;
68432;SDS011;55412;51.350;17.056;2023-04-06T13:40:41;6.50;;;3.50;;
68432;SDS011;55412;51.350;17.056;2023-04-06T13:43:08;13.38;;;5.28;;
68432;SDS011;55412;51.350;17.056;2023-04-06T13:45:34;11.73;;;5.30;;
68432;SDS011;55412;51.350;17.056;2023-04-06T13:48:00;17.00;;;7.78;;
68432;SDS011;55412;51.350;17.056;2023-04-06T13:50:26;12.00;;;5.35;;
68432;SDS011;55412;51.350;17.056;2023-04-06T13:52:52;15.93;;;6.87;;
68432;SDS011;55412;51.350;17.056;2023-04-06T13:55:19;15.07;;;6.68;;
68432;SDS011;55412;51.350;17.056;2023-04-06T13:57:45;12.10;;;4.60;;
68432;SDS011;55412;51.350;17.056;2023-04-06T14:00:12;12.90;;;4.90;;
68432;SDS011;55412;51.350;17.056;2023-04-06T14:02:40;8.98;;;4.05;;
68432;SDS011;55412;51.350;17.056;2023-04-06T14:05:06;13.43;;;5.57;;
68432;SDS011;55412;51.350;17.056;2023-04-06T14:07:32;18.55;;;8.02;;
68432;SDS011;55412;51.350;17.056;2023-04-06T14:09:58;13.73;;;6.40;;
68432;SDS011;55412;51.350;17.056;2023-04-06T14:12:25;10.65;;;4.15;;
68432;SDS011;55412;51.350;17.056;2023-04-06T14:14:52;20.63;;;8.07;;
68432;SDS011;55412;51.350;17.056;2023-04-06T14:17:18;20.98;;;8.55;;
68432;SDS011;55412;51.350;17.056;2023-04-06T14:19:44;15.82;;;7.03;;
68432;SDS011;55412;51.350;17.056;2023-04-06T14:22:10;16.60;;;6.60;;
68432;SDS011;55412;51.350;17.056;2023-04-06T14:24:36;10.45;;;4.53;;
68432;SDS011;55412;51.350;17.056;2023-04-06T14:27:02;10.37;;;3.57;;
68432;SDS011;55412;51.350;17.056;2023-04-06T14:29:28;11.57;;;4.90;;
68432;SDS011;55412;51.350;17.056;2023-04-06T14:31:54;32.25;;;14.52;;
68432;SDS011;55412;51.350;17.056;2023-04-06T14:34:25;20.38;;;9.07;;
68432;SDS011;55412;51.350;17.056;2023-04-06T14:36:54;17.75;;;8.02;;
68432;SDS011;55412;51.350;17.056;2023-04-06T14:39:21;11.30;;;4.63;;
68432;SDS011;55412;51.350;17.056;2023-04-06T14:41:47;10.27;;;5.13;;
68432;SDS011;55412;51.350;17.056;2023-04-06T14:44:16;5.50;;;2.55;;
68432;SDS011;55412;51.350;17.056;2023-04-06T14:46:42;7.20;;;2.88;;